Central Virginia Flyers


Central Virginia Flyers is a 10 member flying club based in Richmond, VA at Hanover County Airport (KOFP). We own N787AT, a 1977 Cessna 172 with 180hp conversion. If you are interested in membership, please contact Brenton at brenton@cvflyers.org.


Aviation Digital Data Service (ADDS)

Output produced by METARs form (0458 UTC 21 April 2015)
found at http://aviationweather.gov/adds/metars/
 
KOFP 210454Z AUTO 21013G18KT 10SM CLR 20/15 A2963 RMK AO2 SLP031 T02000150 402610178
KRIC 210454Z 20015G22KT 10SM FEW022 SCT050 SCT150 BKN300 20/16 A2962 RMK AO2 SLP035 T02000156 402670183
KRIC 202340Z 2100/2124 20012G20KT P6SM SCT050 OVC200 
     FM210300 23010KT P6SM SCT040 BKN100 
     FM211000 29011KT P6SM SCT100 BKN250 
     FM211300 30015G22KT P6SM SCT040 
     FM211900 26015G22KT P6SM SCT250